sensor_id;sensor_type;location;lat;lon;timestamp;pressure;altitude;pressure_sealevel;temperature;humidity
8641;BME280;4358;42.100;25.222;2024-01-16T00:00:33;98801.75;;;1.42;100.00
8641;BME280;4358;42.100;25.222;2024-01-16T00:03:02;98809.38;;;1.47;100.00
8641;BME280;4358;42.100;25.222;2024-01-16T00:05:30;98804.03;;;1.31;100.00
8641;BME280;4358;42.100;25.222;2024-01-16T00:07:56;98799.88;;;1.27;100.00
8641;BME280;4358;42.100;25.222;2024-01-16T00:10:25;98786.97;;;1.24;100.00
8641;BME280;4358;42.100;25.222;2024-01-16T00:12:52;98793.72;;;1.28;100.00
8641;BME280;4358;42.100;25.222;2024-01-16T00:15:19;98790.19;;;1.29;100.00
8641;BME280;4358;42.100;25.222;2024-01-16T00:17:46;98796.47;;;1.44;100.00
8641;BME280;4358;42.100;25.222;2024-01-16T00:20:15;98778.03;;;1.28;100.00
8641;BME280;4358;42.100;25.222;2024-01-16T00:22:42;98783.22;;;1.30;100.00
8641;BME280;4358;42.100;25.222;2024-01-16T00:25:09;98772.38;;;1.37;100.00
8641;BME280;4358;42.100;25.222;2024-01-16T00:27:36;98743.00;;;1.32;100.00
8641;BME280;4358;42.100;25.222;2024-01-16T00:30:03;98769.66;;;1.57;100.00
8641;BME280;4358;42.100;25.222;2024-01-16T00:32:31;98782.81;;;1.56;100.00
8641;BME280;4358;42.100;25.222;2024-01-16T00:34:58;98779.97;;;1.60;100.00
8641;BME280;4358;42.100;25.222;2024-01-16T00:37:26;98778.13;;;1.62;100.00
8641;BME280;4358;42.100;25.222;2024-01-16T00:39:53;98774.59;;;1.63;100.00
8641;BME280;4358;42.100;25.222;2024-01-16T00:42:19;98767.81;;;1.59;100.00
8641;BME280;4358;42.100;25.222;2024-01-16T00:44:46;98770.13;;;1.65;100.00
8641;BME280;4358;42.100;25.222;2024-01-16T00:47:13;98770.59;;;1.74;100.00
8641;BME280;4358;42.100;25.222;2024-01-16T00:49:40;98771.06;;;1.64;100.00
8641;BME280;4358;42.100;25.222;2024-01-16T00:52:07;98776.44;;;1.61;100.00
8641;BME280;4358;42.100;25.222;2024-01-16T00:54:35;98782.81;;;1.56;100.00
8641;BME280;4358;42.100;25.222;2024-01-16T00:57:02;98774.41;;;1.49;100.00
8641;BME280;4358;42.100;25.222;2024-01-16T00:59:29;98785.66;;;1.33;100.00
8641;BME280;4358;42.100;25.222;2024-01-16T01:01:56;98783.00;;;1.34;100.00
8641;BME280;4358;42.100;25.222;2024-01-16T01:04:23;98784.69;;;1.35;100.00
8641;BME280;4358;42.100;25.222;2024-01-16T01:06:50;98783.00;;;1.34;100.00
8641;BME280;4358;42.100;25.222;2024-01-16T01:09:17;98775.44;;;1.28;100.00
8641;BME280;4358;42.100;25.222;2024-01-16T01:11:45;98769.41;;;1.26;100.00
8641;BME280;4358;42.100;25.222;2024-01-16T01:14:12;98767.75;;;1.25;100.00
8641;BME280;4358;42.100;25.222;2024-01-16T01:16:39;98766.28;;;1.19;100.00
8641;BME280;4358;42.100;25.222;2024-01-16T01:19:06;98764.97;;;1.28;100.00
8641;BME280;4358;42.100;25.222;2024-01-16T01:21:33;98758.97;;;1.26;100.00
8641;BME280;4358;42.100;25.222;2024-01-16T01:24:02;98748.66;;;1.23;100.00
8641;BME280;4358;42.100;25.222;2024-01-16T01:26:28;98741.16;;;1.34;100.00
8641;BME280;4358;42.100;25.222;2024-01-16T01:28:57;98732.88;;;1.43;100.00
8641;BME280;4358;42.100;25.222;2024-01-16T01:31:23;98736.41;;;1.42;100.00
8641;BME280;4358;42.100;25.222;2024-01-16T01:33:50;98731.78;;;1.47;100.00
8641;BME280;4358;42.100;25.222;2024-01-16T01:36:17;98725.34;;;1.54;100.00
8641;BME280;4358;42.100;25.222;2024-01-16T01:38:44;98729.72;;;1.54;100.00
8641;BME280;4358;42.100;25.222;2024-01-16T01:41:11;98745.25;;;1.40;100.00
8641;BME280;4358;42.100;25.222;2024-01-16T01:43:38;98749.63;;;1.39;100.00
8641;BME280;4358;42.100;25.222;2024-01-16T01:46:12;98731.84;;;1.28;100.00
8641;BME280;4358;42.100;25.222;2024-01-16T01:48:41;98725.50;;;1.15;100.00
8641;BME280;4358;42.100;25.222;2024-01-16T01:51:08;98715.47;;;1.25;100.00
8641;BME280;4358;42.100;25.222;2024-01-16T01:53:36;98705.78;;;1.27;100.00
8641;BME280;4358;42.100;25.222;2024-01-16T01:56:05;98713.88;;;1.04;100.00
8641;BME280;4358;42.100;25.222;2024-01-16T01:58:34;98740.28;;;0.98;100.00
8641;BME280;4358;42.100;25.222;2024-01-16T02:01:02;98739.22;;;1.02;100.00
8641;BME280;4358;42.100;25.222;2024-01-16T02:03:34;98737.25;;;1.07;100.00
8641;BME280;4358;42.100;25.222;2024-01-16T02:06:02;98740.34;;;0.96;100.00
8641;BME280;4358;42.100;25.222;2024-01-16T02:08:29;98749.84;;;0.99;100.00
8641;BME280;4358;42.100;25.222;2024-01-16T02:10:56;98758.00;;;0.91;100.00
8641;BME280;4358;42.100;25.222;2024-01-16T02:13:23;98754.91;;;0.83;100.00
8641;BME280;4358;42.100;25.222;2024-01-16T02:15:50;98754.91;;;0.83;100.00
8641;BME280;4358;42.100;25.222;2024-01-16T02:18:17;98729.34;;;0.71;100.00
8641;BME280;4358;42.100;25.222;2024-01-16T02:20:46;98748.00;;;0.82;100.00
8641;BME280;4358;42.100;25.222;2024-01-16T02:23:14;98760.00;;;0.67;100.00
8641;BME280;4358;42.100;25.222;2024-01-16T02:25:43;98752.22;;;0.66;100.00
8641;BME280;4358;42.100;25.222;2024-01-16T02:28:11;98748.53;;;0.51;100.00
8641;BME280;4358;42.100;25.222;2024-01-16T02:30:38;98757.75;;;0.58;100.00
8641;BME280;4358;42.100;25.222;2024-01-16T02:33:06;98748.28;;;0.57;100.00
8641;BME280;4358;42.100;25.222;2024-01-16T02:35:33;98748.38;;;0.54;100.00
8641;BME280;4358;42.100;25.222;2024-01-16T02:38:00;98766.88;;;0.50;100.00
8641;BME280;4358;42.100;25.222;2024-01-16T02:40:27;98773.09;;;0.47;100.00
8641;BME280;4358;42.100;25.222;2024-01-16T02:42:55;98763.44;;;0.29;100.00
8641;BME280;4358;42.100;25.222;2024-01-16T02:45:22;98769.25;;;0.35;100.00
8641;BME280;4358;42.100;25.222;2024-01-16T02:47:49;98772.75;;;0.34;100.00
8641;BME280;4358;42.100;25.222;2024-01-16T02:50:16;98780.66;;;0.33;100.00
8641;BME280;4358;42.100;25.222;2024-01-16T02:52:45;98773.47;;;0.38;100.00
8641;BME280;4358;42.100;25.222;2024-01-16T02:55:12;98780.91;;;0.47;100.00
8641;BME280;4358;42.100;25.222;2024-01-16T02:57:40;98780.56;;;0.55;100.00
8641;BME280;4358;42.100;25.222;2024-01-16T03:00:09;98787.06;;;0.65;100.00
8641;BME280;4358;42.100;25.222;2024-01-16T03:02:36;98799.66;;;0.75;100.00
8641;BME280;4358;42.100;25.222;2024-01-16T03:05:04;98808.00;;;0.83;100.00
8641;BME280;4358;42.100;25.222;2024-01-16T03:07:32;98790.53;;;0.84;100.00
8641;BME280;4358;42.100;25.222;2024-01-16T03:09:59;98798.94;;;0.91;100.00
8641;BME280;4358;42.100;25.222;2024-01-16T03:12:26;98796.84;;;0.99;100.00
8641;BME280;4358;42.100;25.222;2024-01-16T03:14:53;98808.84;;;1.03;100.00
8641;BME280;4358;42.100;25.222;2024-01-16T03:17:21;98803.91;;;0.97;100.00
8641;BME280;4358;42.100;25.222;2024-01-16T03:19:48;98798.94;;;0.91;100.00
8641;BME280;4358;42.100;25.222;2024-01-16T03:22:15;98791.75;;;0.96;100.00
8641;BME280;4358;42.100;25.222;2024-01-16T03:24:42;98799.22;;;0.84;100.00
8641;BME280;4358;42.100;25.222;2024-01-16T03:27:09;98815.72;;;0.66;100.00
8641;BME280;4358;42.100;25.222;2024-01-16T03:29:36;98823.50;;;0.68;100.00
8641;BME280;4358;42.100;25.222;2024-01-16T03:32:04;98805.97;;;0.51;100.00
8641;BME280;4358;42.100;25.222;2024-01-16T03:34:32;98805.00;;;0.33;100.00
8641;BME280;4358;42.100;25.222;2024-01-16T03:36:59;98794.50;;;0.35;100.00
8641;BME280;4358;42.100;25.222;2024-01-16T03:39:26;98814.56;;;0.33;100.00
8641;BME280;4358;42.100;25.222;2024-01-16T03:41:53;98820.84;;;0.09;100.00
8641;BME280;4358;42.100;25.222;2024-01-16T03:44:20;98808.56;;;-0.10;100.00
8641;BME280;4358;42.100;25.222;2024-01-16T03:46:47;98813.28;;;0.03;100.00
8641;BME280;4358;42.100;25.222;2024-01-16T03:49:14;98814.72;;;0.10;100.00
8641;BME280;4358;42.100;25.222;2024-01-16T03:51:42;98816.94;;;0.19;100.00
8641;BME280;4358;42.100;25.222;2024-01-16T03:54:11;98817.59;;;0.24;100.00
8641;BME280;4358;42.100;25.222;2024-01-16T03:56:38;98816.53;;;0.28;100.00
8641;BME280;4358;42.100;25.222;2024-01-16T03:59:06;98816.44;;;0.31;100.00
8641;BME280;4358;42.100;25.222;2024-01-16T04:01:33;98801.53;;;0.33;100.00
8641;BME280;4358;42.100;25.222;2024-01-16T04:04:02;98810.81;;;0.40;100.00
8641;BME280;4358;42.100;25.222;2024-01-16T04:06:31;98803.19;;;0.35;100.00
8641;BME280;4358;42.100;25.222;2024-01-16T04:09:00;98804.72;;;0.39;100.00
8641;BME280;4358;42.100;25.222;2024-01-16T04:11:28;98823.97;;;0.37;100.00
8641;BME280;4358;42.100;25.222;2024-01-16T04:13:56;98833.25;;;0.24;100.00
8641;BME280;4358;42.100;25.222;2024-01-16T04:16:23;98846.00;;;-0.11;100.00
8641;BME280;4358;42.100;25.222;2024-01-16T04:18:50;98860.72;;;-0.10;100.00
8641;BME280;4358;42.100;25.222;2024-01-16T04:21:17;98855.63;;;-0.34;100.00
8641;BME280;4358;42.100;25.222;2024-01-16T04:23:44;98862.13;;;-0.23;100.00
8641;BME280;4358;42.100;25.222;2024-01-16T04:26:12;98876.72;;;-0.19;100.00
8641;BME280;4358;42.100;25.222;2024-01-16T04:28:39;98877.41;;;-0.14;100.00
8641;BME280;4358;42.100;25.222;2024-01-16T04:31:06;98857.19;;;-0.09;100.00
8641;BME280;4358;42.100;25.222;2024-01-16T04:33:33;98881.13;;;0.01;100.00
8641;BME280;4358;42.100;25.222;2024-01-16T04:36:00;98891.53;;;0.03;100.00
8641;BME280;4358;42.100;25.222;2024-01-16T04:38:27;98888.63;;;0.10;100.00
8641;BME280;4358;42.100;25.222;2024-01-16T04:40:54;98888.34;;;0.16;100.00
8641;BME280;4358;42.100;25.222;2024-01-16T04:43:22;98885.06;;;0.11;100.00
8641;BME280;4358;42.100;25.222;2024-01-16T04:45:49;98889.84;;;0.22;100.00
8641;BME280;4358;42.100;25.222;2024-01-16T04:48:16;98885.22;;;0.28;100.00
8641;BME280;4358;42.100;25.222;2024-01-16T04:50:44;98895.63;;;0.30;100.00
8641;BME280;4358;42.100;25.222;2024-01-16T04:53:11;98907.63;;;0.34;100.00
8641;BME280;4358;42.100;25.222;2024-01-16T04:55:38;98909.38;;;0.33;100.00
8641;BME280;4358;42.100;25.222;2024-01-16T04:58:05;98907.88;;;0.28;100.00
8641;BME280;4358;42.100;25.222;2024-01-16T05:00:34;98915.28;;;0.17;100.00
8641;BME280;4358;42.100;25.222;2024-01-16T05:03:03;98908.13;;;0.22;100.00
8641;BME280;4358;42.100;25.222;2024-01-16T05:05:30;98921.72;;;0.30;100.00
8641;BME280;4358;42.100;25.222;2024-01-16T05:07:57;98920.72;;;0.32;100.00
8641;BME280;4358;42.100;25.222;2024-01-16T05:10:24;98913.94;;;0.28;100.00
8641;BME280;4358;42.100;25.222;2024-01-16T05:12:51;98917.16;;;0.35;100.00
8641;BME280;4358;42.100;25.222;2024-01-16T05:15:17;98920.53;;;0.37;100.00
8641;BME280;4358;42.100;25.222;2024-01-16T05:17:46;98936.97;;;0.39;100.00
8641;BME280;4358;42.100;25.222;2024-01-16T05:20:13;98951.06;;;0.35;100.00
8641;BME280;4358;42.100;25.222;2024-01-16T05:22:40;98943.31;;;0.33;100.00
8641;BME280;4358;42.100;25.222;2024-01-16T05:25:07;98951.06;;;0.35;100.00
8641;BME280;4358;42.100;25.222;2024-01-16T05:27:34;98949.50;;;0.31;100.00
8641;BME280;4358;42.100;25.222;2024-01-16T05:30:01;98953.03;;;0.30;100.00
8641;BME280;4358;42.100;25.222;2024-01-16T05:32:29;98958.00;;;0.36;100.00
8641;BME280;4358;42.100;25.222;2024-01-16T05:34:57;98964.91;;;0.37;100.00
8641;BME280;4358;42.100;25.222;2024-01-16T05:37:24;98980.44;;;0.40;100.00
8641;BME280;4358;42.100;25.222;2024-01-16T05:39:51;98996.22;;;0.37;100.00
8641;BME280;4358;42.100;25.222;2024-01-16T05:42:17;99007.59;;;0.36;100.00
8641;BME280;4358;42.100;25.222;2024-01-16T05:44:44;99001.69;;;0.31;100.00
8641;BME280;4358;42.100;25.222;2024-01-16T05:47:11;98998.91;;;0.35;100.00
8641;BME280;4358;42.100;25.222;2024-01-16T05:49:38;99015.91;;;0.46;100.00
8641;BME280;4358;42.100;25.222;2024-01-16T05:52:08;99026.81;;;0.55;100.00
8641;BME280;4358;42.100;25.222;2024-01-16T05:54:35;99037.72;;;0.65;100.00
8641;BME280;4358;42.100;25.222;2024-01-16T05:57:02;99058.56;;;0.66;100.00
8641;BME280;4358;42.100;25.222;2024-01-16T05:59:29;99063.78;;;0.66;100.00
8641;BME280;4358;42.100;25.222;2024-01-16T06:01:56;99078.03;;;0.58;100.00
8641;BME280;4358;42.100;25.222;2024-01-16T06:04:23;99089.25;;;0.61;100.00
8641;BME280;4358;42.100;25.222;2024-01-16T06:06:50;99100.44;;;0.63;100.00
8641;BME280;4358;42.100;25.222;2024-01-16T06:09:19;99114.25;;;0.67;100.00
8641;BME280;4358;42.100;25.222;2024-01-16T06:11:46;99118.56;;;0.68;100.00
8641;BME280;4358;42.100;25.222;2024-01-16T06:14:13;99119.28;;;0.71;100.00
8641;BME280;4358;42.100;25.222;2024-01-16T06:16:47;99118.91;;;0.80;100.00
8641;BME280;4358;42.100;25.222;2024-01-16T06:19:14;99126.38;;;0.90;100.00
8641;BME280;4358;42.100;25.222;2024-01-16T06:21:41;99139.16;;;0.97;100.00
8641;BME280;4358;42.100;25.222;2024-01-16T06:24:08;99148.25;;;1.09;100.00
8641;BME280;4358;42.100;25.222;2024-01-16T06:26:38;99156.28;;;1.04;100.00
8641;BME280;4358;42.100;25.222;2024-01-16T06:29:05;99159.00;;;1.01;100.00
8641;BME280;4358;42.100;25.222;2024-01-16T06:31:33;99152.50;;;0.90;100.00
8641;BME280;4358;42.100;25.222;2024-01-16T06:34:00;99158.00;;;0.83;100.00
8641;BME280;4358;42.100;25.222;2024-01-16T06:36:27;99163.47;;;0.99;100.00
8641;BME280;4358;42.100;25.222;2024-01-16T06:38:54;99179.84;;;1.03;100.00
8641;BME280;4358;42.100;25.222;2024-01-16T06:41:20;99191.41;;;1.19;100.00
8641;BME280;4358;42.100;25.222;2024-01-16T06:43:49;99208.66;;;1.23;100.00
8641;BME280;4358;42.100;25.222;2024-01-16T06:46:16;99206.22;;;1.40;100.00
8641;BME280;4358;42.100;25.222;2024-01-16T06:48:43;99218.09;;;1.47;100.00
8641;BME280;4358;42.100;25.222;2024-01-16T06:51:10;99221.38;;;1.52;100.00
8641;BME280;4358;42.100;25.222;2024-01-16T06:53:39;99222.59;;;1.65;100.00
8641;BME280;4358;42.100;25.222;2024-01-16T06:56:06;99210.69;;;1.79;100.00
8641;BME280;4358;42.100;25.222;2024-01-16T06:58:34;99217.06;;;1.93;100.00
8641;BME280;4358;42.100;25.222;2024-01-16T07:01:03;99221.03;;;2.02;100.00
8641;BME280;4358;42.100;25.222;2024-01-16T07:03:30;99215.63;;;2.25;100.00
8641;BME280;4358;42.100;25.222;2024-01-16T07:05:57;99226.38;;;2.39;100.00
8641;BME280;4358;42.100;25.222;2024-01-16T07:08:24;99234.19;;;2.60;100.00
8641;BME280;4358;42.100;25.222;2024-01-16T07:10:51;99224.69;;;2.76;100.00
8641;BME280;4358;42.100;25.222;2024-01-16T07:13:18;99235.44;;;2.88;100.00
8641;BME280;4358;42.100;25.222;2024-01-16T07:15:45;99242.13;;;2.95;100.00
8641;BME280;4358;42.100;25.222;2024-01-16T07:18:14;99255.19;;;3.14;100.00
8641;BME280;4358;42.100;25.222;2024-01-16T07:20:40;99264.03;;;3.30;100.00
8641;BME280;4358;42.100;25.222;2024-01-16T07:23:08;99278.75;;;3.34;100.00
8641;BME280;4358;42.100;25.222;2024-01-16T07:25:36;99280.50;;;3.34;100.00
8641;BME280;4358;42.100;25.222;2024-01-16T07:28:03;99278.00;;;3.31;100.00
8641;BME280;4358;42.100;25.222;2024-01-16T07:30:30;99273.91;;;3.25;100.00
8641;BME280;4358;42.100;25.222;2024-01-16T07:32:57;99288.44;;;3.32;100.00
8641;BME280;4358;42.100;25.222;2024-01-16T07:35:25;99295.66;;;3.27;100.00
8641;BME280;4358;42.100;25.222;2024-01-16T07:37:52;99303.72;;;3.41;100.00
8641;BME280;4358;42.100;25.222;2024-01-16T07:40:19;99307.50;;;3.55;100.00
8641;BME280;4358;42.100;25.222;2024-01-16T07:42:46;99318.00;;;3.72;100.00
8641;BME280;4358;42.100;25.222;2024-01-16T07:45:13;99333.47;;;3.78;100.00
8641;BME280;4358;42.100;25.222;2024-01-16T07:47:40;99342.13;;;3.80;100.00
8641;BME280;4358;42.100;25.222;2024-01-16T07:50:07;99347.06;;;3.86;100.00
8641;BME280;4358;42.100;25.222;2024-01-16T07:52:37;99347.53;;;3.94;100.00
8641;BME280;4358;42.100;25.222;2024-01-16T07:55:04;99346.47;;;3.98;100.00
8641;BME280;4358;42.100;25.222;2024-01-16T07:57:31;99353.34;;;4.01;100.00
8641;BME280;4358;42.100;25.222;2024-01-16T07:59:59;99366.09;;;3.91;100.00
8641;BME280;4358;42.100;25.222;2024-01-16T08:02:30;99367.84;;;3.91;100.00
8641;BME280;4358;42.100;25.222;2024-01-16T08:04:58;99379.84;;;3.96;100.00
8641;BME280;4358;42.100;25.222;2024-01-16T08:07:26;99398.22;;;3.96;100.00
8641;BME280;4358;42.100;25.222;2024-01-16T08:09:54;99412.19;;;3.97;100.00
8641;BME280;4358;42.100;25.222;2024-01-16T08:12:21;99402.44;;;3.99;100.00
8641;BME280;4358;42.100;25.222;2024-01-16T08:14:49;99403.41;;;3.98;100.00
8641;BME280;4358;42.100;25.222;2024-01-16T08:17:16;99406.09;;;3.96;100.00
8641;BME280;4358;42.100;25.222;2024-01-16T08:19:43;99416.88;;;3.90;100.00
8641;BME280;4358;42.100;25.222;2024-01-16T08:22:10;99410.06;;;3.86;100.00
8641;BME280;4358;42.100;25.222;2024-01-16T08:24:37;99416.09;;;3.88;100.00
8641;BME280;4358;42.100;25.222;2024-01-16T08:27:05;99415.31;;;3.86;100.00
8641;BME280;4358;42.100;25.222;2024-01-16T08:29:32;99416.59;;;3.96;100.00
8641;BME280;4358;42.100;25.222;2024-01-16T08:31:59;99411.13;;;4.01;100.00
8641;BME280;4358;42.100;25.222;2024-01-16T08:34:26;99427.22;;;4.12;100.00
8641;BME280;4358;42.100;25.222;2024-01-16T08:36:53;99413.16;;;4.13;100.00
8641;BME280;4358;42.100;25.222;2024-01-16T08:39:22;99444.63;;;4.32;100.00
8641;BME280;4358;42.100;25.222;2024-01-16T08:41:49;99450.50;;;4.37;100.00
8641;BME280;4358;42.100;25.222;2024-01-16T08:44:17;99452.53;;;4.49;100.00
8641;BME280;4358;42.100;25.222;2024-01-16T08:46:44;99455.31;;;4.63;100.00
8641;BME280;4358;42.100;25.222;2024-01-16T08:49:12;99453.47;;;4.82;100.00
8641;BME280;4358;42.100;25.222;2024-01-16T08:51:39;99451.84;;;4.97;100.00
8641;BME280;4358;42.100;25.222;2024-01-16T08:54:07;99457.78;;;5.18;100.00
8641;BME280;4358;42.100;25.222;2024-01-16T08:56:33;99456.28;;;5.29;100.00
8641;BME280;4358;42.100;25.222;2024-01-16T08:59:00;99455.31;;;5.47;100.00
8641;BME280;4358;42.100;25.222;2024-01-16T09:01:29;99460.63;;;5.63;100.00
8641;BME280;4358;42.100;25.222;2024-01-16T09:03:56;99466.56;;;5.82;100.00
8641;BME280;4358;42.100;25.222;2024-01-16T09:06:23;99470.34;;;5.94;100.00
8641;BME280;4358;42.100;25.222;2024-01-16T09:08:49;99481.81;;;6.09;100.00
8641;BME280;4358;42.100;25.222;2024-01-16T09:11:17;99490.06;;;6.18;100.00
8641;BME280;4358;42.100;25.222;2024-01-16T09:13:43;99479.97;;;6.26;100.00
8641;BME280;4358;42.100;25.222;2024-01-16T09:16:10;99488.03;;;6.39;100.00
8641;BME280;4358;42.100;25.222;2024-01-16T09:18:39;99487.06;;;6.56;100.00
8641;BME280;4358;42.100;25.222;2024-01-16T09:21:06;99492.88;;;6.76;100.00
8641;BME280;4358;42.100;25.222;2024-01-16T09:23:32;99497.84;;;6.97;100.00
8641;BME280;4358;42.100;25.222;2024-01-16T09:25:59;99495.50;;;7.22;100.00
8641;BME280;4358;42.100;25.222;2024-01-16T09:28:26;99508.16;;;7.45;100.00
8641;BME280;4358;42.100;25.222;2024-01-16T09:30:54;99512.13;;;7.66;100.00
8641;BME280;4358;42.100;25.222;2024-01-16T09:33:22;99514.59;;;7.84;100.00
8641;BME280;4358;42.100;25.222;2024-01-16T09:35:52;99517.00;;;8.01;100.00
8641;BME280;4358;42.100;25.222;2024-01-16T09:38:19;99504.94;;;8.11;100.00
8641;BME280;4358;42.100;25.222;2024-01-16T09:40:46;99521.69;;;8.38;100.00
8641;BME280;4358;42.100;25.222;2024-01-16T09:43:13;99528.56;;;8.55;100.00
8641;BME280;4358;42.100;25.222;2024-01-16T09:45:40;99515.19;;;8.71;100.00
8641;BME280;4358;42.100;25.222;2024-01-16T09:48:08;99518.53;;;8.87;100.00
8641;BME280;4358;42.100;25.222;2024-01-16T09:50:35;99513.91;;;9.03;100.00
8641;BME280;4358;42.100;25.222;2024-01-16T09:53:04;99513.81;;;9.05;100.00
8641;BME280;4358;42.100;25.222;2024-01-16T09:55:31;99507.69;;;9.17;100.00
8641;BME280;4358;42.100;25.222;2024-01-16T09:57:59;99522.84;;;9.27;100.00
8641;BME280;4358;42.100;25.222;2024-01-16T10:00:27;99519.25;;;9.28;100.00
8641;BME280;4358;42.100;25.222;2024-01-16T10:02:55;99529.75;;;9.43;100.00
8641;BME280;4358;42.100;25.222;2024-01-16T10:05:24;99530.09;;;9.51;100.00
8641;BME280;4358;42.100;25.222;2024-01-16T10:07:52;99523.63;;;9.55;100.00
8641;BME280;4358;42.100;25.222;2024-01-16T10:10:20;99516.44;;;9.57;100.00
8641;BME280;4358;42.100;25.222;2024-01-16T10:12:49;99523.19;;;9.61;100.00
8641;BME280;4358;42.100;25.222;2024-01-16T10:15:19;99518.41;;;9.53;100.00
8641;BME280;4358;42.100;25.222;2024-01-16T10:17:46;99532.31;;;9.57;100.00
8641;BME280;4358;42.100;25.222;2024-01-16T10:20:13;99530.72;;;9.54;100.00
8641;BME280;4358;42.100;25.222;2024-01-16T10:22:52;99537.50;;;9.46;100.00
8641;BME280;4358;42.100;25.222;2024-01-16T10:25:21;99542.56;;;9.49;100.00
8641;BME280;4358;42.100;25.222;2024-01-16T10:27:48;99547.78;;;9.50;100.00
8641;BME280;4358;42.100;25.222;2024-01-16T10:30:21;99540.34;;;9.43;100.00
8641;BME280;4358;42.100;25.222;2024-01-16T10:32:48;99543.00;;;9.43;100.00
8641;BME280;4358;42.100;25.222;2024-01-16T10:35:15;99555.06;;;9.34;100.00
8641;BME280;4358;42.100;25.222;2024-01-16T10:37:43;99549.84;;;9.20;100.00
8641;BME280;4358;42.100;25.222;2024-01-16T10:40:14;99547.69;;;9.12;100.00
8641;BME280;4358;42.100;25.222;2024-01-16T10:42:43;99548.88;;;9.08;100.00
8641;BME280;4358;42.100;25.222;2024-01-16T10:45:17;99549.91;;;9.06;100.00
8641;BME280;4358;42.100;25.222;2024-01-16T10:47:45;99554.16;;;9.08;100.00
8641;BME280;4358;42.100;25.222;2024-01-16T10:50:12;99558.09;;;9.15;100.00
8641;BME280;4358;42.100;25.222;2024-01-16T10:52:46;99584.03;;;9.10;100.00
8641;BME280;4358;42.100;25.222;2024-01-16T10:55:19;99568.69;;;9.15;100.00
8641;BME280;4358;42.100;25.222;2024-01-16T10:57:48;99568.31;;;9.34;100.00
8641;BME280;4358;42.100;25.222;2024-01-16T11:00:18;99577.97;;;9.48;100.00
8641;BME280;4358;42.100;25.222;2024-01-16T11:02:49;99575.25;;;9.62;99.54
8641;BME280;4358;42.100;25.222;2024-01-16T11:05:17;99582.88;;;9.66;99.14
8641;BME280;4358;42.100;25.222;2024-01-16T11:07:44;99570.25;;;9.70;98.19
8641;BME280;4358;42.100;25.222;2024-01-16T11:10:12;99574.59;;;9.71;97.37
8641;BME280;4358;42.100;25.222;2024-01-16T11:12:40;99563.78;;;9.61;98.43
8641;BME280;4358;42.100;25.222;2024-01-16T11:15:10;99579.25;;;9.80;98.27
8641;BME280;4358;42.100;25.222;2024-01-16T11:17:38;99562.66;;;9.78;96.75
8641;BME280;4358;42.100;25.222;2024-01-16T11:20:09;99576.19;;;9.73;98.37
8641;BME280;4358;42.100;25.222;2024-01-16T11:22:41;99580.75;;;9.71;99.05
8641;BME280;4358;42.100;25.222;2024-01-16T11:25:10;99590.28;;;9.61;97.72
8641;BME280;4358;42.100;25.222;2024-01-16T11:27:37;99578.41;;;9.54;97.50
8641;BME280;4358;42.100;25.222;2024-01-16T11:30:05;99591.28;;;9.33;96.71
8641;BME280;4358;42.100;25.222;2024-01-16T11:32:35;99596.97;;;9.15;97.80
8641;BME280;4358;42.100;25.222;2024-01-16T11:35:03;99605.22;;;9.10;98.55
8641;BME280;4358;42.100;25.222;2024-01-16T11:37:31;99598.72;;;9.02;98.60
8641;BME280;4358;42.100;25.222;2024-01-16T11:40:24;99602.81;;;8.93;97.81
8641;BME280;4358;42.100;25.222;2024-01-16T11:42:53;99613.41;;;8.93;99.09
8641;BME280;4358;42.100;25.222;2024-01-16T11:45:48;99613.19;;;8.96;98.55
8641;BME280;4358;42.100;25.222;2024-01-16T11:48:17;99606.94;;;8.97;97.12
8641;BME280;4358;42.100;25.222;2024-01-16T11:50:45;99619.03;;;9.01;97.31
8641;BME280;4358;42.100;25.222;2024-01-16T11:53:33;99615.13;;;9.07;97.44
8641;BME280;4358;42.100;25.222;2024-01-16T11:56:28;99615.81;;;9.10;97.19
8641;BME280;4358;42.100;25.222;2024-01-16T11:59:32;99615.91;;;9.09;97.75
8641;BME280;4358;42.100;25.222;2024-01-16T12:02:10;99644.94;;;9.10;97.76
8641;BME280;4358;42.100;25.222;2024-01-16T12:04:41;99623.00;;;9.08;98.16
8641;BME280;4358;42.100;25.222;2024-01-16T12:07:08;99620.41;;;9.21;96.94
8641;BME280;4358;42.100;25.222;2024-01-16T12:09:36;99616.59;;;9.38;96.03
8641;BME280;4358;42.100;25.222;2024-01-16T12:12:04;99622.03;;;9.49;95.21
8641;BME280;4358;42.100;25.222;2024-01-16T12:14:31;99634.66;;;9.58;94.13
8641;BME280;4358;42.100;25.222;2024-01-16T12:17:11;99630.56;;;9.66;93.98
8641;BME280;4358;42.100;25.222;2024-01-16T12:19:40;99637.13;;;9.73;93.87
8641;BME280;4358;42.100;25.222;2024-01-16T12:22:08;99643.09;;;9.77;94.36
8641;BME280;4358;42.100;25.222;2024-01-16T12:24:36;99642.47;;;9.86;93.21
8641;BME280;4358;42.100;25.222;2024-01-16T12:27:03;99650.19;;;9.89;92.13
8641;BME280;4358;42.100;25.222;2024-01-16T12:29:31;99658.59;;;9.83;91.36
8641;BME280;4358;42.100;25.222;2024-01-16T12:32:05;99655.16;;;9.68;93.20
8641;BME280;4358;42.100;25.222;2024-01-16T12:34:33;99665.56;;;9.71;91.85
8641;BME280;4358;42.100;25.222;2024-01-16T12:37:06;99660.25;;;9.71;92.16
8641;BME280;4358;42.100;25.222;2024-01-16T12:39:34;99671.03;;;9.68;91.75
8641;BME280;4358;42.100;25.222;2024-01-16T12:42:01;99667.34;;;9.71;91.07
8641;BME280;4358;42.100;25.222;2024-01-16T12:44:29;99681.47;;;9.71;92.11
8641;BME280;4358;42.100;25.222;2024-01-16T12:46:56;99681.91;;;9.78;91.77
8641;BME280;4358;42.100;25.222;2024-01-16T12:49:24;99686.97;;;9.81;91.85
8641;BME280;4358;42.100;25.222;2024-01-16T12:51:51;99705.53;;;9.81;90.82
8641;BME280;4358;42.100;25.222;2024-01-16T12:54:20;99695.88;;;9.80;90.82
8641;BME280;4358;42.100;25.222;2024-01-16T12:56:58;99699.59;;;9.90;92.16
8641;BME280;4358;42.100;25.222;2024-01-16T12:59:27;99703.97;;;9.91;90.35
8641;BME280;4358;42.100;25.222;2024-01-16T13:01:56;99704.91;;;9.90;89.40
8641;BME280;4358;42.100;25.222;2024-01-16T13:04:23;99706.53;;;9.93;89.89
8641;BME280;4358;42.100;25.222;2024-01-16T13:06:50;99712.47;;;9.96;89.93
8641;BME280;4358;42.100;25.222;2024-01-16T13:09:17;99713.94;;;10.00;89.84
8641;BME280;4358;42.100;25.222;2024-01-16T13:11:50;99724.75;;;9.97;90.34
8641;BME280;4358;42.100;25.222;2024-01-16T13:14:18;99728.59;;;9.93;90.13
8641;BME280;4358;42.100;25.222;2024-01-16T13:16:47;99727.50;;;9.96;90.68